Roy Baker — WDC2698 — position and weather

sailwx.info

Track history (hours):
 
Tides and Currents Weather Stations Pressure Air Temp Water Temp Dewpoint Dewpoint Depression Visibility Wind Speed Wind Dir Waves Ship Positions

Roy Baker

Owner: Kirby Inland Marine LP, Houston, TX. More information available from US FCC via Universal Licensing System and Coast Guard Vessel Documentation Center.

Last reported at 2017-May-26 01:12 UTC. Time now 2017-May-27 00:22 UTC.
Position N 29°50' W 091°58'.

Length 11 m; draft 2.1 m.

Type: Towing. MMSI: 366996540.

Date/timePositionNaut miles runAvg speedWind from/ knotsBaromVisibWave heightAir tempDewpointWater temp
2017-May-26 01:12N 29°50' W 091°58'1 5.7
2017-May-26 01:00N 29°50' W 091°59'3 5.6
2017-May-26 00:30N 29°49' W 092°02'3 5.7
2017-May-26 00:00N 29°48' W 092°05'3 5.9
2017-May-25 23:30N 29°47' W 092°08'3 5.2
2017-May-25 23:00N 29°47' W 092°11'2 4.8
2017-May-25 22:30N 29°48' W 092°14'2 4.2
2017-May-25 22:00N 29°48' W 092°16'2 3.7
2017-May-25 21:30N 29°49' W 092°18'2 3.4
2017-May-25 20:59N 29°50' W 092°19'0 0.0
2017-May-25 20:30N 29°50' W 092°19'0 0.0
2017-May-25 20:00N 29°50' W 092°19'0 0.0
2017-May-25 19:30N 29°50' W 092°19'0 0.0
2017-May-25 19:00N 29°50' W 092°19'0 0.0
2017-May-25 18:29N 29°50' W 092°19'0 0.0
2017-May-25 17:59N 29°50' W 092°19'0 0.0
2017-May-25 17:29N 29°50' W 092°19'0 0.2
2017-May-25 17:00N 29°50' W 092°19'0 0.2
2017-May-25 16:30N 29°50' W 092°20'0 0.0
2017-May-25 16:00N 29°50' W 092°20'0 0.0
2017-May-25 15:30N 29°50' W 092°19'0 0.4
2017-May-25 15:00N 29°50' W 092°20'7 4.6
2017-May-25 13:30N 29°54' W 092°27'35 2.9
2017-May-25 01:31N 29°56' W 093°07'0 4.4
2017-May-25 01:30N 29°56' W 093°07'2 0.1
2017-May-24 06:22N 29°56' W 093°09'1 3.6
2017-May-24 06:00N 29°57' W 093°10'2 4.0
2017-May-24 05:30N 29°59' W 093°12'1 2.6
2017-May-24 05:00N 29°60' W 093°13'0 0.3
2017-May-24 04:30N 29°60' W 093°13'0 0.2
2017-May-24 04:00N 29°60' W 093°13'0 0.1
2017-May-24 03:30N 29°60' W 093°13'0 0.8
2017-May-24 03:00N 30°00' W 093°14'2 3.9
2017-May-24 02:30N 30°02' W 093°15'2 3.7
2017-May-24 02:00N 30°03' W 093°16'2 4.6
2017-May-24 01:31N 30°05' W 093°17'2 3.0
2017-May-24 01:00N 30°06' W 093°19'3 5.4
2017-May-24 00:30N 30°04' W 093°21'2 4.6
2017-May-24 00:00N 30°04' W 093°23'2 4.8
2017-May-23 23:30N 30°04' W 093°26'2 5.0
2017-May-23 23:00N 30°04' W 093°29'3 0.1
2017-May-22 21:42N 30°04' W 093°32'1 5.5
2017-May-22 21:30N 30°04' W 093°31'3 5.7
2017-May-22 21:00N 30°04' W 093°28'3 5.8
2017-May-22 20:30N 30°04' W 093°24'3 5.8
2017-May-22 20:00N 30°04' W 093°21'2 3.5
2017-May-22 19:30N 30°05' W 093°20'3 5.6
2017-May-22 19:00N 30°02' W 093°20'3 5.3
2017-May-22 18:30N 29°59' W 093°20'5 0.4
2017-May-22 04:44N 29°54' W 093°20'1 4.4
2017-May-22 04:30N 29°55' W 093°20'2 4.7
2017-May-22 04:00N 29°58' W 093°20'2 4.7
2017-May-22 03:30N 30°00' W 093°20'4 8.9
2017-May-22 03:00N 30°05' W 093°20'2 4.2
2017-May-22 02:30N 30°04' W 093°22'4 7.7
2017-May-22 02:00N 30°04' W 093°26'4 7.6
2017-May-22 01:30N 30°04' W 093°31'1 0.1
2017-May-21 14:04N 30°04' W 093°32'3 6.2
2017-May-21 13:30N 30°04' W 093°28'3 6.2
2017-May-21 13:01N 30°04' W 093°25'3 5.9
2017-May-21 12:30N 30°04' W 093°21'2 3.2
2017-May-21 12:00N 30°05' W 093°20'2 4.1
2017-May-21 11:31N 30°05' W 093°18'3 5.6
2017-May-21 11:00N 30°03' W 093°16'3 5.2
2017-May-21 10:30N 30°01' W 093°14'2 4.7
2017-May-21 10:00N 29°59' W 093°12'2 4.0
2017-May-21 09:30N 29°58' W 093°11'3 5.3
2017-May-21 09:00N 29°56' W 093°08'41 5.2
2017-May-21 01:05N 29°51' W 092°22'1 5.0
2017-May-21 00:51N 29°51' W 092°20'2 5.5
2017-May-21 00:30N 29°50' W 092°18'3 5.4
2017-May-21 00:00N 29°48' W 092°16'3 5.8
2017-May-20 23:30N 29°47' W 092°13'1 2.6
2017-May-20 23:00N 29°47' W 092°11'0 0.9
2017-May-20 22:30N 29°47' W 092°11'0 0.7
2017-May-20 22:01N 29°47' W 092°10'3 5.0
2017-May-20 21:30N 29°47' W 092°08'2 4.7
2017-May-20 21:01N 29°48' W 092°05'3 5.4
2017-May-20 20:30N 29°49' W 092°02'65 4.5
2017-May-20 06:02N 29°32' W 090°50'0 5.6
2017-May-20 06:01N 29°32' W 090°50'3 5.6
2017-May-20 05:30N 29°32' W 090°47'2 4.1
2017-May-20 05:00N 29°33' W 090°45'2 4.3
2017-May-20 04:30N 29°35' W 090°43'2 4.6
2017-May-20 04:01N 29°37' W 090°42'3 5.1
2017-May-20 03:30N 29°36' W 090°39'3 5.6
2017-May-20 03:00N 29°35' W 090°37'3 5.4
2017-May-20 02:30N 29°34' W 090°34'  
Track history (hours):
 
Tides and Currents Weather Stations Pressure Air Temp Water Temp Dewpoint Dewpoint Depression Visibility Wind Speed Wind Dir Waves Ship Positions

Roy Baker

Owner: Kirby Inland Marine LP, Houston, TX. More information available from US FCC via Universal Licensing System and Coast Guard Vessel Documentation Center.

Last reported at 2017-May-26 01:12 UTC. Time now 2017-May-27 00:22 UTC.
Position N 29°50' W 091°58'.

Length 11 m; draft 2.1 m.

Type: Towing. MMSI: 366996540.

Date/timePositionNaut miles runAvg speedWind from/ knotsBaromVisibWave heightAir tempDewpointWater temp
2017-May-26 01:12N 29°50' W 091°58'1 5.7
2017-May-26 01:00N 29°50' W 091°59'3 5.6
2017-May-26 00:30N 29°49' W 092°02'3 5.7
2017-May-26 00:00N 29°48' W 092°05'3 5.9
2017-May-25 23:30N 29°47' W 092°08'3 5.2
2017-May-25 23:00N 29°47' W 092°11'2 4.8
2017-May-25 22:30N 29°48' W 092°14'2 4.2
2017-May-25 22:00N 29°48' W 092°16'2 3.7
2017-May-25 21:30N 29°49' W 092°18'2 3.4
2017-May-25 20:59N 29°50' W 092°19'0 0.0
2017-May-25 20:30N 29°50' W 092°19'0 0.0
2017-May-25 20:00N 29°50' W 092°19'0 0.0
2017-May-25 19:30N 29°50' W 092°19'0 0.0
2017-May-25 19:00N 29°50' W 092°19'0 0.0
2017-May-25 18:29N 29°50' W 092°19'0 0.0
2017-May-25 17:59N 29°50' W 092°19'0 0.0
2017-May-25 17:29N 29°50' W 092°19'0 0.2
2017-May-25 17:00N 29°50' W 092°19'0 0.2
2017-May-25 16:30N 29°50' W 092°20'0 0.0
2017-May-25 16:00N 29°50' W 092°20'0 0.0
2017-May-25 15:30N 29°50' W 092°19'0 0.4
2017-May-25 15:00N 29°50' W 092°20'7 4.6
2017-May-25 13:30N 29°54' W 092°27'35 2.9
2017-May-25 01:31N 29°56' W 093°07'0 4.4
2017-May-25 01:30N 29°56' W 093°07'2 0.1
2017-May-24 06:22N 29°56' W 093°09'1 3.6
2017-May-24 06:00N 29°57' W 093°10'2 4.0
2017-May-24 05:30N 29°59' W 093°12'1 2.6
2017-May-24 05:00N 29°60' W 093°13'0 0.3
2017-May-24 04:30N 29°60' W 093°13'0 0.2
2017-May-24 04:00N 29°60' W 093°13'0 0.1
2017-May-24 03:30N 29°60' W 093°13'0 0.8
2017-May-24 03:00N 30°00' W 093°14'2 3.9
2017-May-24 02:30N 30°02' W 093°15'2 3.7
2017-May-24 02:00N 30°03' W 093°16'2 4.6
2017-May-24 01:31N 30°05' W 093°17'2 3.0
2017-May-24 01:00N 30°06' W 093°19'3 5.4
2017-May-24 00:30N 30°04' W 093°21'2 4.6
2017-May-24 00:00N 30°04' W 093°23'2 4.8
2017-May-23 23:30N 30°04' W 093°26'2 5.0
2017-May-23 23:00N 30°04' W 093°29'3 0.1
2017-May-22 21:42N 30°04' W 093°32'1 5.5
2017-May-22 21:30N 30°04' W 093°31'3 5.7
2017-May-22 21:00N 30°04' W 093°28'3 5.8
2017-May-22 20:30N 30°04' W 093°24'3 5.8
2017-May-22 20:00N 30°04' W 093°21'2 3.5
2017-May-22 19:30N 30°05' W 093°20'3 5.6
2017-May-22 19:00N 30°02' W 093°20'3 5.3
2017-May-22 18:30N 29°59' W 093°20'5 0.4
2017-May-22 04:44N 29°54' W 093°20'1 4.4
2017-May-22 04:30N 29°55' W 093°20'2 4.7
2017-May-22 04:00N 29°58' W 093°20'2 4.7
2017-May-22 03:30N 30°00' W 093°20'4 8.9
2017-May-22 03:00N 30°05' W 093°20'2 4.2
2017-May-22 02:30N 30°04' W 093°22'4 7.7
2017-May-22 02:00N 30°04' W 093°26'4 7.6
2017-May-22 01:30N 30°04' W 093°31'1 0.1
2017-May-21 14:04N 30°04' W 093°32'3 6.2
2017-May-21 13:30N 30°04' W 093°28'3 6.2
2017-May-21 13:01N 30°04' W 093°25'3 5.9
2017-May-21 12:30N 30°04' W 093°21'2 3.2
2017-May-21 12:00N 30°05' W 093°20'2 4.1
2017-May-21 11:31N 30°05' W 093°18'3 5.6
2017-May-21 11:00N 30°03' W 093°16'3 5.2
2017-May-21 10:30N 30°01' W 093°14'2 4.7
2017-May-21 10:00N 29°59' W 093°12'2 4.0
2017-May-21 09:30N 29°58' W 093°11'3 5.3
2017-May-21 09:00N 29°56' W 093°08'41 5.2
2017-May-21 01:05N 29°51' W 092°22'1 5.0
2017-May-21 00:51N 29°51' W 092°20'2 5.5
2017-May-21 00:30N 29°50' W 092°18'3 5.4
2017-May-21 00:00N 29°48' W 092°16'3 5.8
2017-May-20 23:30N 29°47' W 092°13'1 2.6
2017-May-20 23:00N 29°47' W 092°11'0 0.9
2017-May-20 22:30N 29°47' W 092°11'0 0.7
2017-May-20 22:01N 29°47' W 092°10'3 5.0
2017-May-20 21:30N 29°47' W 092°08'2 4.7
2017-May-20 21:01N 29°48' W 092°05'3 5.4
2017-May-20 20:30N 29°49' W 092°02'65 4.5
2017-May-20 06:02N 29°32' W 090°50'0 5.6
2017-May-20 06:01N 29°32' W 090°50'3 5.6
2017-May-20 05:30N 29°32' W 090°47'2 4.1
2017-May-20 05:00N 29°33' W 090°45'2 4.3
2017-May-20 04:30N 29°35' W 090°43'2 4.6
2017-May-20 04:01N 29°37' W 090°42'3 5.1
2017-May-20 03:30N 29°36' W 090°39'3 5.6
2017-May-20 03:00N 29°35' W 090°37'3 5.4
2017-May-20 02:30N 29°34' W 090°34'  

Dump ship's entire track history